sensor_id;sensor_type;location;lat;lon;timestamp;pressure;altitude;pressure_sealevel;temperature;humidity
77019;BME280;66044;53.142;17.962;2023-02-25T00:00:29;98681.99;;;3.59;68.35
77019;BME280;66044;53.142;17.962;2023-02-25T00:03:12;98677.64;;;3.60;68.37
77019;BME280;66044;53.142;17.962;2023-02-25T00:05:41;98678.88;;;3.61;68.40
77019;BME280;66044;53.142;17.962;2023-02-25T00:08:07;98675.13;;;3.63;68.60
77019;BME280;66044;53.142;17.962;2023-02-25T00:10:34;98675.48;;;3.62;68.65
77019;BME280;66044;53.142;17.962;2023-02-25T00:13:03;98668.64;;;3.58;68.66
77019;BME280;66044;53.142;17.962;2023-02-25T00:15:30;98666.14;;;3.58;68.67
77019;BME280;66044;53.142;17.962;2023-02-25T00:17:56;98664.45;;;3.58;68.77
77019;BME280;66044;53.142;17.962;2023-02-25T00:20:23;98658.15;;;3.58;68.83
77019;BME280;66044;53.142;17.962;2023-02-25T00:22:49;98653.52;;;3.58;68.96
77019;BME280;66044;53.142;17.962;2023-02-25T00:25:16;98648.98;;;3.58;69.04
77019;BME280;66044;53.142;17.962;2023-02-25T00:27:42;98646.69;;;3.57;69.06
77019;BME280;66044;53.142;17.962;2023-02-25T00:30:10;98645.11;;;3.56;69.01
77019;BME280;66044;53.142;17.962;2023-02-25T00:32:37;98643.42;;;3.55;69.16
77019;BME280;66044;53.142;17.962;2023-02-25T00:35:05;98643.61;;;3.55;69.12
77019;BME280;66044;53.142;17.962;2023-02-25T00:37:32;98638.04;;;3.52;69.27
77019;BME280;66044;53.142;17.962;2023-02-25T00:39:58;98631.65;;;3.52;69.45
77019;BME280;66044;53.142;17.962;2023-02-25T00:42:25;98630.30;;;3.52;69.15
77019;BME280;66044;53.142;17.962;2023-02-25T00:44:51;98631.98;;;3.53;69.59
77019;BME280;66044;53.142;17.962;2023-02-25T00:47:18;98628.91;;;3.55;69.54
77019;BME280;66044;53.142;17.962;2023-02-25T00:49:46;98625.02;;;3.56;69.55
77019;BME280;66044;53.142;17.962;2023-02-25T00:52:13;98624.83;;;3.57;69.50
77019;BME280;66044;53.142;17.962;2023-02-25T00:54:40;98618.80;;;3.58;69.55
77019;BME280;66044;53.142;17.962;2023-02-25T00:57:07;98617.78;;;3.59;69.54
77019;BME280;66044;53.142;17.962;2023-02-25T00:59:34;98614.42;;;3.61;69.70
77019;BME280;66044;53.142;17.962;2023-02-25T01:02:01;98611.42;;;3.63;69.85
77019;BME280;66044;53.142;17.962;2023-02-25T01:04:27;98609.17;;;3.63;69.77
77019;BME280;66044;53.142;17.962;2023-02-25T01:06:54;98602.98;;;3.62;69.87
77019;BME280;66044;53.142;17.962;2023-02-25T01:09:20;98602.66;;;3.56;69.86
77019;BME280;66044;53.142;17.962;2023-02-25T01:11:48;98594.24;;;3.54;69.99
77019;BME280;66044;53.142;17.962;2023-02-25T01:14:18;98595.52;;;3.54;70.11
77019;BME280;66044;53.142;17.962;2023-02-25T01:16:46;98589.22;;;3.50;70.28
77019;BME280;66044;53.142;17.962;2023-02-25T01:19:16;98586.95;;;3.46;70.32
77019;BME280;66044;53.142;17.962;2023-02-25T01:21:45;98586.41;;;3.46;70.47
77019;BME280;66044;53.142;17.962;2023-02-25T01:24:18;98579.79;;;3.46;70.43
77019;BME280;66044;53.142;17.962;2023-02-25T01:26:51;98580.79;;;3.46;70.45
77019;BME280;66044;53.142;17.962;2023-02-25T01:29:23;98578.04;;;3.45;70.33
77019;BME280;66044;53.142;17.962;2023-02-25T01:31:53;98575.54;;;3.45;70.62
77019;BME280;66044;53.142;17.962;2023-02-25T01:34:20;98576.08;;;3.46;70.61
77019;BME280;66044;53.142;17.962;2023-02-25T01:36:47;98571.70;;;3.46;70.50
77019;BME280;66044;53.142;17.962;2023-02-25T01:39:15;98570.14;;;3.47;70.70
77019;BME280;66044;53.142;17.962;2023-02-25T01:41:42;98563.23;;;3.47;70.63
77019;BME280;66044;53.142;17.962;2023-02-25T01:44:19;98561.38;;;3.46;70.78
77019;BME280;66044;53.142;17.962;2023-02-25T01:46:48;98558.36;;;3.46;70.65
77019;BME280;66044;53.142;17.962;2023-02-25T01:49:25;98554.88;;;3.46;70.71
77019;BME280;66044;53.142;17.962;2023-02-25T01:52:17;98546.16;;;3.46;70.86
77019;BME280;66044;53.142;17.962;2023-02-25T01:54:47;98542.89;;;3.46;70.80
77019;BME280;66044;53.142;17.962;2023-02-25T01:57:16;98543.94;;;3.43;70.90
77019;BME280;66044;53.142;17.962;2023-02-25T01:59:45;98540.91;;;3.39;70.98
77019;BME280;66044;53.142;17.962;2023-02-25T02:02:15;98542.77;;;3.38;71.09
77019;BME280;66044;53.142;17.962;2023-02-25T02:04:43;98533.46;;;3.38;71.21
77019;BME280;66044;53.142;17.962;2023-02-25T02:07:10;98526.49;;;3.39;71.18
77019;BME280;66044;53.142;17.962;2023-02-25T02:09:37;98528.88;;;3.37;71.18
77019;BME280;66044;53.142;17.962;2023-02-25T02:12:05;98523.50;;;3.35;71.29
77019;BME280;66044;53.142;17.962;2023-02-25T02:14:36;98520.48;;;3.33;71.18
77019;BME280;66044;53.142;17.962;2023-02-25T02:17:17;98518.64;;;3.30;71.54
77019;BME280;66044;53.142;17.962;2023-02-25T02:22:40;98507.45;;;3.24;71.67
77019;BME280;66044;53.142;17.962;2023-02-25T02:36:53;98496.05;;;3.27;72.14
77019;BME280;66044;53.142;17.962;2023-02-25T02:39:47;98496.42;;;3.27;72.27
77019;BME280;66044;53.142;17.962;2023-02-25T02:42:27;98492.79;;;3.25;72.24
77019;BME280;66044;53.142;17.962;2023-02-25T02:45:20;98488.81;;;3.24;72.37
77019;BME280;66044;53.142;17.962;2023-02-25T02:48:02;98489.91;;;3.22;72.22
77019;BME280;66044;53.142;17.962;2023-02-25T02:50:40;98490.14;;;3.21;72.52
77019;BME280;66044;53.142;17.962;2023-02-25T02:53:13;98486.09;;;3.20;72.46
77019;BME280;66044;53.142;17.962;2023-02-25T02:55:51;98484.78;;;3.17;72.62
77019;BME280;66044;53.142;17.962;2023-02-25T02:58:28;98477.91;;;3.15;72.61
77019;BME280;66044;53.142;17.962;2023-02-25T03:01:04;98478.23;;;3.11;72.65
77019;BME280;66044;53.142;17.962;2023-02-25T03:03:35;98477.90;;;3.05;72.73
77019;BME280;66044;53.142;17.962;2023-02-25T03:06:13;98476.36;;;3.03;72.98
77019;BME280;66044;53.142;17.962;2023-02-25T03:08:48;98472.06;;;3.01;72.92
77019;BME280;66044;53.142;17.962;2023-02-25T03:11:19;98469.73;;;3.01;73.03
77019;BME280;66044;53.142;17.962;2023-02-25T03:13:45;98465.77;;;3.01;73.15
77019;BME280;66044;53.142;17.962;2023-02-25T03:16:23;98466.55;;;3.01;73.15
77019;BME280;66044;53.142;17.962;2023-02-25T03:19:00;98464.63;;;3.03;73.30
77019;BME280;66044;53.142;17.962;2023-02-25T03:21:37;98461.66;;;3.02;73.42
77019;BME280;66044;53.142;17.962;2023-02-25T03:24:12;98458.97;;;3.01;73.43
77019;BME280;66044;53.142;17.962;2023-02-25T03:26:39;98457.34;;;3.00;73.62
77019;BME280;66044;53.142;17.962;2023-02-25T03:29:19;98455.04;;;3.01;73.67
77019;BME280;66044;53.142;17.962;2023-02-25T03:32:05;98452.63;;;3.02;73.71
77019;BME280;66044;53.142;17.962;2023-02-25T03:34:40;98448.89;;;3.01;73.60
77019;BME280;66044;53.142;17.962;2023-02-25T03:37:10;98449.83;;;2.99;73.98
77019;BME280;66044;53.142;17.962;2023-02-25T03:39:43;98451.47;;;2.98;74.01
77019;BME280;66044;53.142;17.962;2023-02-25T03:42:16;98447.25;;;2.99;74.05
77019;BME280;66044;53.142;17.962;2023-02-25T03:44:47;98447.12;;;3.00;74.08
77019;BME280;66044;53.142;17.962;2023-02-25T03:47:17;98443.73;;;2.98;74.18
77019;BME280;66044;53.142;17.962;2023-02-25T03:52:16;98444.72;;;2.94;74.41
77019;BME280;66044;53.142;17.962;2023-02-25T03:54:49;98445.38;;;2.95;74.37
77019;BME280;66044;53.142;17.962;2023-02-25T03:57:17;98444.38;;;2.95;74.34
77019;BME280;66044;53.142;17.962;2023-02-25T03:59:44;98444.40;;;2.96;74.60
77019;BME280;66044;53.142;17.962;2023-02-25T04:02:11;98443.69;;;2.97;74.74
77019;BME280;66044;53.142;17.962;2023-02-25T04:04:39;98445.16;;;2.98;74.78
77019;BME280;66044;53.142;17.962;2023-02-25T04:07:06;98443.24;;;2.99;74.74
77019;BME280;66044;53.142;17.962;2023-02-25T04:09:32;98447.31;;;3.01;74.90
77019;BME280;66044;53.142;17.962;2023-02-25T04:11:59;98445.91;;;3.03;74.94
77019;BME280;66044;53.142;17.962;2023-02-25T04:14:25;98442.97;;;3.03;75.00
77019;BME280;66044;53.142;17.962;2023-02-25T04:16:51;98437.54;;;3.04;74.96
77019;BME280;66044;53.142;17.962;2023-02-25T04:19:18;98436.94;;;3.04;75.24
77019;BME280;66044;53.142;17.962;2023-02-25T04:21:44;98432.98;;;3.05;75.18
77019;BME280;66044;53.142;17.962;2023-02-25T04:24:11;98432.88;;;3.06;75.22
77019;BME280;66044;53.142;17.962;2023-02-25T04:26:37;98434.57;;;3.08;75.21
77019;BME280;66044;53.142;17.962;2023-02-25T04:29:04;98429.23;;;3.09;75.17
77019;BME280;66044;53.142;17.962;2023-02-25T04:31:33;98430.83;;;3.12;75.19
77019;BME280;66044;53.142;17.962;2023-02-25T04:34:00;98427.88;;;3.14;75.17
77019;BME280;66044;53.142;17.962;2023-02-25T04:36:29;98426.79;;;3.16;75.09
77019;BME280;66044;53.142;17.962;2023-02-25T04:38:57;98425.66;;;3.16;75.27
77019;BME280;66044;53.142;17.962;2023-02-25T04:41:28;98420.57;;;3.16;75.18
77019;BME280;66044;53.142;17.962;2023-02-25T04:43:54;98418.90;;;3.16;75.06
77019;BME280;66044;53.142;17.962;2023-02-25T04:46:21;98414.63;;;3.17;75.08
77019;BME280;66044;53.142;17.962;2023-02-25T04:48:47;98412.79;;;3.17;75.33
77019;BME280;66044;53.142;17.962;2023-02-25T04:51:14;98412.09;;;3.16;75.19
77019;BME280;66044;53.142;17.962;2023-02-25T04:53:41;98411.73;;;3.17;75.18
77019;BME280;66044;53.142;17.962;2023-02-25T04:56:08;98406.64;;;3.17;75.32
77019;BME280;66044;53.142;17.962;2023-02-25T04:58:36;98405.70;;;3.18;75.24
77019;BME280;66044;53.142;17.962;2023-02-25T05:01:04;98405.86;;;3.20;75.01
77019;BME280;66044;53.142;17.962;2023-02-25T05:03:31;98407.22;;;3.22;75.20
77019;BME280;66044;53.142;17.962;2023-02-25T05:05:58;98401.98;;;3.22;75.26
77019;BME280;66044;53.142;17.962;2023-02-25T05:08:25;98396.84;;;3.23;75.32
77019;BME280;66044;53.142;17.962;2023-02-25T05:10:52;98399.66;;;3.23;75.35
77019;BME280;66044;53.142;17.962;2023-02-25T05:13:19;98398.66;;;3.23;75.29
77019;BME280;66044;53.142;17.962;2023-02-25T05:15:46;98395.14;;;3.24;75.31
77019;BME280;66044;53.142;17.962;2023-02-25T05:18:13;98395.88;;;3.26;75.17
77019;BME280;66044;53.142;17.962;2023-02-25T05:20:44;98391.40;;;3.28;75.27
77019;BME280;66044;53.142;17.962;2023-02-25T05:23:11;98389.38;;;3.28;75.19
77019;BME280;66044;53.142;17.962;2023-02-25T05:25:38;98387.81;;;3.27;75.17
77019;BME280;66044;53.142;17.962;2023-02-25T05:28:11;98393.84;;;3.28;75.25
77019;BME280;66044;53.142;17.962;2023-02-25T05:30:38;98393.52;;;3.28;75.26
77019;BME280;66044;53.142;17.962;2023-02-25T05:33:05;98393.55;;;3.29;75.27
77019;BME280;66044;53.142;17.962;2023-02-25T05:35:32;98391.23;;;3.30;75.33
77019;BME280;66044;53.142;17.962;2023-02-25T05:37:58;98394.85;;;3.29;75.33
77019;BME280;66044;53.142;17.962;2023-02-25T05:40:25;98393.92;;;3.29;75.49
77019;BME280;66044;53.142;17.962;2023-02-25T05:42:52;98395.58;;;3.28;75.42
77019;BME280;66044;53.142;17.962;2023-02-25T05:45:18;98396.98;;;3.29;75.25
77019;BME280;66044;53.142;17.962;2023-02-25T05:47:45;98395.05;;;3.28;75.32
77019;BME280;66044;53.142;17.962;2023-02-25T05:50:11;98398.70;;;3.29;75.37
77019;BME280;66044;53.142;17.962;2023-02-25T05:52:37;98397.30;;;3.28;75.49
77019;BME280;66044;53.142;17.962;2023-02-25T05:55:04;98399.95;;;3.28;75.35
77019;BME280;66044;53.142;17.962;2023-02-25T05:57:34;98400.11;;;3.28;75.46
77019;BME280;66044;53.142;17.962;2023-02-25T06:00:00;98398.05;;;3.30;75.55
77019;BME280;66044;53.142;17.962;2023-02-25T06:02:27;98398.08;;;3.31;75.49
77019;BME280;66044;53.142;17.962;2023-02-25T06:04:53;98398.39;;;3.32;75.42
77019;BME280;66044;53.142;17.962;2023-02-25T06:07:20;98401.60;;;3.32;75.54
77019;BME280;66044;53.142;17.962;2023-02-25T06:09:46;98403.39;;;3.34;75.39
77019;BME280;66044;53.142;17.962;2023-02-25T06:12:12;98402.11;;;3.36;75.53
77019;BME280;66044;53.142;17.962;2023-02-25T06:14:39;98398.06;;;3.38;75.51
77019;BME280;66044;53.142;17.962;2023-02-25T06:17:05;98398.63;;;3.39;75.36
77019;BME280;66044;53.142;17.962;2023-02-25T06:19:32;98399.18;;;3.40;75.41
77019;BME280;66044;53.142;17.962;2023-02-25T06:21:58;98404.95;;;3.43;75.29
77019;BME280;66044;53.142;17.962;2023-02-25T06:24:24;98401.40;;;3.45;75.59
77019;BME280;66044;53.142;17.962;2023-02-25T06:26:51;98410.21;;;3.48;75.45
77019;BME280;66044;53.142;17.962;2023-02-25T06:29:17;98411.42;;;3.51;75.29
77019;BME280;66044;53.142;17.962;2023-02-25T06:31:44;98410.27;;;3.54;75.27
77019;BME280;66044;53.142;17.962;2023-02-25T06:34:10;98413.74;;;3.58;75.08
77019;BME280;66044;53.142;17.962;2023-02-25T06:36:37;98411.60;;;3.63;75.25
77019;BME280;66044;53.142;17.962;2023-02-25T06:39:03;98411.11;;;3.67;74.99
77019;BME280;66044;53.142;17.962;2023-02-25T06:41:30;98416.30;;;3.70;74.88
77019;BME280;66044;53.142;17.962;2023-02-25T06:43:56;98415.66;;;3.74;75.12
77019;BME280;66044;53.142;17.962;2023-02-25T06:46:24;98418.91;;;3.79;74.94
77019;BME280;66044;53.142;17.962;2023-02-25T06:48:51;98419.48;;;3.83;74.82
77019;BME280;66044;53.142;17.962;2023-02-25T06:51:18;98423.64;;;3.87;74.65
77019;BME280;66044;53.142;17.962;2023-02-25T06:53:45;98421.89;;;3.91;74.74
77019;BME280;66044;53.142;17.962;2023-02-25T06:56:14;98421.83;;;3.91;74.62
77019;BME280;66044;53.142;17.962;2023-02-25T06:58:41;98422.48;;;3.89;74.65
77019;BME280;66044;53.142;17.962;2023-02-25T07:01:13;98425.89;;;3.92;74.47
77019;BME280;66044;53.142;17.962;2023-02-25T07:03:40;98427.52;;;3.97;74.62
77019;BME280;66044;53.142;17.962;2023-02-25T07:06:09;98425.64;;;4.00;74.59
77019;BME280;66044;53.142;17.962;2023-02-25T07:08:35;98426.55;;;4.02;74.42
77019;BME280;66044;53.142;17.962;2023-02-25T07:13:47;98434.23;;;4.05;74.26
77019;BME280;66044;53.142;17.962;2023-02-25T07:16:15;98435.85;;;4.07;74.14
77019;BME280;66044;53.142;17.962;2023-02-25T07:18:42;98432.27;;;4.08;74.14
77019;BME280;66044;53.142;17.962;2023-02-25T07:21:09;98433.10;;;4.09;74.01
77019;BME280;66044;53.142;17.962;2023-02-25T07:23:40;98434.10;;;4.09;74.08
77019;BME280;66044;53.142;17.962;2023-02-25T07:26:08;98438.27;;;4.08;73.86
77019;BME280;66044;53.142;17.962;2023-02-25T07:28:35;98440.54;;;4.09;73.99
77019;BME280;66044;53.142;17.962;2023-02-25T07:31:03;98440.52;;;4.13;74.06
77019;BME280;66044;53.142;17.962;2023-02-25T07:33:31;98439.38;;;4.16;73.74
77019;BME280;66044;53.142;17.962;2023-02-25T07:35:57;98446.36;;;4.18;73.83
77019;BME280;66044;53.142;17.962;2023-02-25T07:38:23;98443.10;;;4.19;73.67
77019;BME280;66044;53.142;17.962;2023-02-25T07:40:50;98446.77;;;4.17;73.62
77019;BME280;66044;53.142;17.962;2023-02-25T07:43:16;98449.39;;;4.20;73.68
77019;BME280;66044;53.142;17.962;2023-02-25T07:45:43;98447.59;;;4.25;73.83
77019;BME280;66044;53.142;17.962;2023-02-25T07:48:10;98449.91;;;4.29;73.45
77019;BME280;66044;53.142;17.962;2023-02-25T07:50:36;98449.52;;;4.34;73.56
77019;BME280;66044;53.142;17.962;2023-02-25T07:53:03;98453.75;;;4.39;73.53
77019;BME280;66044;53.142;17.962;2023-02-25T07:55:29;98455.77;;;4.44;73.20
77019;BME280;66044;53.142;17.962;2023-02-25T07:57:56;98457.81;;;4.46;72.96
77019;BME280;66044;53.142;17.962;2023-02-25T08:00:22;98458.65;;;4.52;72.84
77019;BME280;66044;53.142;17.962;2023-02-25T08:02:49;98459.72;;;4.58;72.64
77019;BME280;66044;53.142;17.962;2023-02-25T08:05:16;98458.13;;;4.61;72.46
77019;BME280;66044;53.142;17.962;2023-02-25T08:07:46;98459.06;;;4.64;72.45
77019;BME280;66044;53.142;17.962;2023-02-25T08:10:13;98459.79;;;4.65;72.42
77019;BME280;66044;53.142;17.962;2023-02-25T08:12:39;98460.51;;;4.67;72.40
77019;BME280;66044;53.142;17.962;2023-02-25T08:15:06;98462.27;;;4.71;72.36
77019;BME280;66044;53.142;17.962;2023-02-25T08:17:33;98460.89;;;4.74;72.07
77019;BME280;66044;53.142;17.962;2023-02-25T08:20:00;98461.88;;;4.74;71.98
77019;BME280;66044;53.142;17.962;2023-02-25T08:22:26;98468.06;;;4.75;71.71
77019;BME280;66044;53.142;17.962;2023-02-25T08:24:53;98463.86;;;4.77;71.75
77019;BME280;66044;53.142;17.962;2023-02-25T08:27:19;98471.32;;;4.80;71.86
77019;BME280;66044;53.142;17.962;2023-02-25T08:29:45;98471.09;;;4.83;71.65
77019;BME280;66044;53.142;17.962;2023-02-25T08:32:12;98476.80;;;4.87;71.45
77019;BME280;66044;53.142;17.962;2023-02-25T08:34:38;98480.30;;;4.93;71.47
77019;BME280;66044;53.142;17.962;2023-02-25T08:37:07;98479.48;;;4.96;71.39
77019;BME280;66044;53.142;17.962;2023-02-25T08:39:34;98483.44;;;4.99;71.42
77019;BME280;66044;53.142;17.962;2023-02-25T08:42:01;98484.24;;;5.01;71.24
77019;BME280;66044;53.142;17.962;2023-02-25T08:44:27;98485.03;;;5.05;71.15
77019;BME280;66044;53.142;17.962;2023-02-25T08:46:54;98489.08;;;5.09;71.12
77019;BME280;66044;53.142;17.962;2023-02-25T08:49:20;98489.43;;;5.08;70.73
77019;BME280;66044;53.142;17.962;2023-02-25T08:51:49;98495.54;;;5.06;70.74
77019;BME280;66044;53.142;17.962;2023-02-25T08:54:15;98497.41;;;5.08;70.76
77019;BME280;66044;53.142;17.962;2023-02-25T08:56:42;98501.33;;;5.10;70.72
77019;BME280;66044;53.142;17.962;2023-02-25T08:59:13;98503.10;;;5.17;70.69
77019;BME280;66044;53.142;17.962;2023-02-25T09:01:40;98505.90;;;5.29;70.61
77019;BME280;66044;53.142;17.962;2023-02-25T09:04:20;98511.43;;;5.37;70.61
77019;BME280;66044;53.142;17.962;2023-02-25T09:06:49;98515.70;;;5.44;70.25
77019;BME280;66044;53.142;17.962;2023-02-25T09:09:18;98512.64;;;5.52;70.40
77019;BME280;66044;53.142;17.962;2023-02-25T09:11:46;98520.02;;;5.56;70.08
77019;BME280;66044;53.142;17.962;2023-02-25T09:14:14;98525.69;;;5.54;69.90
77019;BME280;66044;53.142;17.962;2023-02-25T09:16:40;98525.14;;;5.53;69.88
77019;BME280;66044;53.142;17.962;2023-02-25T09:19:07;98533.21;;;5.51;69.90
77019;BME280;66044;53.142;17.962;2023-02-25T09:21:33;98534.23;;;5.49;69.86
77019;BME280;66044;53.142;17.962;2023-02-25T09:24:01;98536.45;;;5.49;69.60
77019;BME280;66044;53.142;17.962;2023-02-25T09:26:27;98541.80;;;5.44;69.62
77019;BME280;66044;53.142;17.962;2023-02-25T09:28:54;98543.70;;;5.38;69.59
77019;BME280;66044;53.142;17.962;2023-02-25T09:31:20;98545.11;;;5.33;69.67
77019;BME280;66044;53.142;17.962;2023-02-25T09:33:47;98548.02;;;5.31;69.67
77019;BME280;66044;53.142;17.962;2023-02-25T09:36:15;98548.67;;;5.24;69.67
77019;BME280;66044;53.142;17.962;2023-02-25T09:38:43;98548.06;;;5.21;69.87
77019;BME280;66044;53.142;17.962;2023-02-25T09:41:25;98551.02;;;5.20;69.98
77019;BME280;66044;53.142;17.962;2023-02-25T09:44:12;98555.62;;;5.19;69.77
77019;BME280;66044;53.142;17.962;2023-02-25T09:46:45;98558.27;;;5.18;69.80
77019;BME280;66044;53.142;17.962;2023-02-25T09:49:24;98562.45;;;5.16;69.98
77019;BME280;66044;53.142;17.962;2023-02-25T09:52:02;98559.32;;;5.12;69.88
77019;BME280;66044;53.142;17.962;2023-02-25T09:54:37;98565.75;;;5.10;69.88
77019;BME280;66044;53.142;17.962;2023-02-25T09:57:11;98567.52;;;5.12;70.03
77019;BME280;66044;53.142;17.962;2023-02-25T09:59:38;98566.74;;;5.11;69.81
77019;BME280;66044;53.142;17.962;2023-02-25T10:05:10;98574.91;;;5.09;70.01
77019;BME280;66044;53.142;17.962;2023-02-25T10:07:58;98574.75;;;5.09;69.93
77019;BME280;66044;53.142;17.962;2023-02-25T10:11:37;98584.35;;;5.07;69.89
77019;BME280;66044;53.142;17.962;2023-02-25T10:14:02;98588.98;;;5.00;69.80
77019;BME280;66044;53.142;17.962;2023-02-25T10:16:46;98590.35;;;4.95;69.85
77019;BME280;66044;53.142;17.962;2023-02-25T10:25:02;98602.84;;;4.91;70.17
77019;BME280;66044;53.142;17.962;2023-02-25T10:27:37;98607.56;;;4.93;70.28
77019;BME280;66044;53.142;17.962;2023-02-25T10:30:31;98607.27;;;4.94;69.97
77019;BME280;66044;53.142;17.962;2023-02-25T10:33:07;98611.95;;;4.96;70.12
77019;BME280;66044;53.142;17.962;2023-02-25T10:35:40;98616.06;;;4.99;70.13
77019;BME280;66044;53.142;17.962;2023-02-25T10:38:09;98617.27;;;5.01;70.25
77019;BME280;66044;53.142;17.962;2023-02-25T10:40:39;98620.23;;;5.01;70.41
77019;BME280;66044;53.142;17.962;2023-02-25T10:43:19;98623.88;;;5.01;70.38
77019;BME280;66044;53.142;17.962;2023-02-25T10:45:48;98626.62;;;4.98;70.32
77019;BME280;66044;53.142;17.962;2023-02-25T10:48:23;98630.61;;;4.97;70.47
77019;BME280;66044;53.142;17.962;2023-02-25T10:51:03;98630.58;;;4.96;70.15
77019;BME280;66044;53.142;17.962;2023-02-25T10:53:32;98633.31;;;4.96;70.37
77019;BME280;66044;53.142;17.962;2023-02-25T10:55:59;98636.35;;;4.96;70.48
77019;BME280;66044;53.142;17.962;2023-02-25T10:58:34;98640.10;;;4.97;70.53
77019;BME280;66044;53.142;17.962;2023-02-25T11:01:06;98641.54;;;4.99;70.63
77019;BME280;66044;53.142;17.962;2023-02-25T11:04:04;98648.77;;;5.02;70.40
77019;BME280;66044;53.142;17.962;2023-02-25T11:06:35;98650.96;;;5.08;70.49
77019;BME280;66044;53.142;17.962;2023-02-25T11:09:26;98652.40;;;5.10;70.51
77019;BME280;66044;53.142;17.962;2023-02-25T11:11:58;98658.14;;;5.12;70.57
77019;BME280;66044;53.142;17.962;2023-02-25T11:14:27;98661.62;;;5.16;70.63
77019;BME280;66044;53.142;17.962;2023-02-25T11:19:35;98663.84;;;5.29;70.65
77019;BME280;66044;53.142;17.962;2023-02-25T11:22:17;98662.78;;;5.34;70.65
77019;BME280;66044;53.142;17.962;2023-02-25T11:24:55;98665.23;;;5.40;70.74
77019;BME280;66044;53.142;17.962;2023-02-25T11:27:37;98666.80;;;5.45;70.77
77019;BME280;66044;53.142;17.962;2023-02-25T11:30:31;98668.59;;;5.49;70.56
77019;BME280;66044;53.142;17.962;2023-02-25T11:33:18;98671.27;;;5.53;70.28
77019;BME280;66044;53.142;17.962;2023-02-25T11:35:56;98669.86;;;5.57;70.16
77019;BME280;66044;53.142;17.962;2023-02-25T11:41:03;98675.31;;;5.62;70.02
77019;BME280;66044;53.142;17.962;2023-02-25T11:43:40;98685.63;;;5.64;70.01
77019;BME280;66044;53.142;17.962;2023-02-25T11:48:48;98689.60;;;5.67;69.80
77019;BME280;66044;53.142;17.962;2023-02-25T11:51:28;98692.91;;;5.63;69.74
77019;BME280;66044;53.142;17.962;2023-02-25T11:54:24;98699.94;;;5.61;70.03
77019;BME280;66044;53.142;17.962;2023-02-25T11:59:37;98705.38;;;5.59;70.23
77019;BME280;66044;53.142;17.962;2023-02-25T12:02:18;98707.97;;;5.60;70.18
77019;BME280;66044;53.142;17.962;2023-02-25T12:07:51;98709.48;;;5.59;70.05
77019;BME280;66044;53.142;17.962;2023-02-25T12:17:04;98718.86;;;5.46;70.04
77019;BME280;66044;53.142;17.962;2023-02-25T12:25:51;98714.86;;;5.55;70.32
77019;BME280;66044;53.142;17.962;2023-02-25T12:28:48;98717.36;;;5.55;70.05
77019;BME280;66044;53.142;17.962;2023-02-25T12:32:01;98720.29;;;5.52;69.88
77019;BME280;66044;53.142;17.962;2023-02-25T12:37:42;98730.70;;;5.45;70.02
77019;BME280;66044;53.142;17.962;2023-02-25T12:40:34;98737.71;;;5.46;69.74
77019;BME280;66044;53.142;17.962;2023-02-25T12:43:25;98753.97;;;5.42;69.71
77019;BME280;66044;53.142;17.962;2023-02-25T12:48:46;98765.33;;;5.22;69.66
77019;BME280;66044;53.142;17.962;2023-02-25T12:51:30;98769.98;;;5.12;69.79
77019;BME280;66044;53.142;17.962;2023-02-25T12:57:02;98781.29;;;4.76;69.91
77019;BME280;66044;53.142;17.962;2023-02-25T12:59:50;98776.20;;;4.59;70.13
77019;BME280;66044;53.142;17.962;2023-02-25T13:02:46;98781.14;;;4.49;70.51
77019;BME280;66044;53.142;17.962;2023-02-25T13:05:33;98781.77;;;4.43;70.61
77019;BME280;66044;53.142;17.962;2023-02-25T13:16:25;98804.74;;;4.35;71.20
77019;BME280;66044;53.142;17.962;2023-02-25T13:19:24;98811.43;;;4.40;71.28
77019;BME280;66044;53.142;17.962;2023-02-25T13:22:04;98818.06;;;4.45;70.89
77019;BME280;66044;53.142;17.962;2023-02-25T13:24:43;98817.77;;;4.50;71.11
77019;BME280;66044;53.142;17.962;2023-02-25T13:39:02;98863.14;;;4.74;70.47
77019;BME280;66044;53.142;17.962;2023-02-25T13:41:48;98874.38;;;4.74;70.44
77019;BME280;66044;53.142;17.962;2023-02-25T13:44:18;98879.79;;;4.74;70.43
77019;BME280;66044;53.142;17.962;2023-02-25T13:50:13;98888.36;;;4.88;70.05
77019;BME280;66044;53.142;17.962;2023-02-25T13:53:11;98895.13;;;4.97;69.82
77019;BME280;66044;53.142;17.962;2023-02-25T13:59:01;98916.30;;;5.03;69.52
77019;BME280;66044;53.142;17.962;2023-02-25T14:02:12;98919.95;;;4.96;69.24
77019;BME280;66044;53.142;17.962;2023-02-25T14:05:07;98924.23;;;4.87;69.44
77019;BME280;66044;53.142;17.962;2023-02-25T14:11:26;98937.70;;;4.79;69.37
77019;BME280;66044;53.142;17.962;2023-02-25T14:14:36;98943.71;;;4.70;69.35
77019;BME280;66044;53.142;17.962;2023-02-25T14:18:02;98947.36;;;4.63;69.61
77019;BME280;66044;53.142;17.962;2023-02-25T14:20:37;98956.73;;;4.58;69.61
77019;BME280;66044;53.142;17.962;2023-02-25T14:29:30;98981.22;;;4.48;69.55
77019;BME280;66044;53.142;17.962;2023-02-25T14:34:40;98992.94;;;4.50;69.56
77019;BME280;66044;53.142;17.962;2023-02-25T14:40:27;99011.23;;;4.44;69.48
77019;BME280;66044;53.142;17.962;2023-02-25T14:43:20;99018.65;;;4.43;69.46
77019;BME280;66044;53.142;17.962;2023-02-25T14:46:54;99021.41;;;4.42;69.35
77019;BME280;66044;53.142;17.962;2023-02-25T14:49:05;99024.25;;;4.42;69.29
77019;BME280;66044;53.142;17.962;2023-02-25T14:51:59;99038.29;;;4.40;69.29
77019;BME280;66044;53.142;17.962;2023-02-25T14:57:40;99040.89;;;4.30;68.58
77019;BME280;66044;53.142;17.962;2023-02-25T15:03:40;99058.36;;;4.18;68.42
77019;BME280;66044;53.142;17.962;2023-02-25T15:06:36;99071.64;;;4.10;68.27
77019;BME280;66044;53.142;17.962;2023-02-25T15:12:13;99089.19;;;3.87;68.01
77019;BME280;66044;53.142;17.962;2023-02-25T15:23:07;99125.15;;;3.46;68.53
77019;BME280;66044;53.142;17.962;2023-02-25T15:26:17;99133.48;;;3.39;68.94
77019;BME280;66044;53.142;17.962;2023-02-25T15:38:59;99160.22;;;3.26;69.65
77019;BME280;66044;53.142;17.962;2023-02-25T15:51:53;99190.32;;;3.12;69.13